createdAt,value
2023-03-08T00:02:11.383Z,3.80
2023-03-08T00:07:17.498Z,7.43
2023-03-08T00:12:20.102Z,5.73
2023-03-08T00:17:24.380Z,7.73
2023-03-08T00:22:28.417Z,4.23
2023-03-08T00:27:30.109Z,12.53
2023-03-08T00:32:34.362Z,4.63
2023-03-08T00:37:36.061Z,4.23
2023-03-08T00:42:37.787Z,6.37
2023-03-08T00:47:42.030Z,7.70
2023-03-08T00:52:43.684Z,7.70
2023-03-08T00:57:47.587Z,9.57
2023-03-08T01:02:51.937Z,9.47
2023-03-08T01:07:55.917Z,8.80
2023-03-08T01:13:00.218Z,9.37
2023-03-08T01:18:01.913Z,5.77
2023-03-08T01:23:04.612Z,9.10
2023-03-08T01:28:10.906Z,10.90
2023-03-08T01:33:12.573Z,5.73
2023-03-08T01:38:14.398Z,11.80
2023-03-08T01:43:33.286Z,5.87
2023-03-08T01:48:48.657Z,6.03
2023-03-08T01:53:53.837Z,5.63
2023-03-08T01:58:59.093Z,6.60
2023-03-08T02:04:04.117Z,5.77
2023-03-08T02:09:12.776Z,8.07
2023-03-08T02:14:16.513Z,9.40
2023-03-08T02:19:47.662Z,6.70
2023-03-08T02:24:51.454Z,6.17
2023-03-08T02:29:53.174Z,4.47
2023-03-08T02:34:54.824Z,9.57
2023-03-08T02:39:56.466Z,11.50
2023-03-08T02:44:58.215Z,9.67
2023-03-08T02:50:02.461Z,6.97
2023-03-08T02:55:09.596Z,8.90
2023-03-08T03:00:14.272Z,11.37
2023-03-08T03:05:16.070Z,11.23
2023-03-08T03:10:18.182Z,9.07
2023-03-08T03:15:24.885Z,10.97
2023-03-08T03:20:33.657Z,5.67
2023-03-08T03:25:40.722Z,6.07
2023-03-08T03:30:46.488Z,5.70
2023-03-08T03:35:58.188Z,9.47
2023-03-08T03:41:07.329Z,8.27
2023-03-08T03:46:12.558Z,8.33
2023-03-08T03:51:21.004Z,6.13
2023-03-08T03:56:30.269Z,8.57
2023-03-08T04:01:35.214Z,8.03
2023-03-08T04:06:49.144Z,5.33
2023-03-08T04:11:57.015Z,5.53
2023-03-08T04:17:01.424Z,8.33
2023-03-08T04:22:11.993Z,11.00
2023-03-08T04:27:20.145Z,9.73
2023-03-08T04:32:22.141Z,6.87
2023-03-08T04:37:31.048Z,7.57
2023-03-08T04:42:41.976Z,7.80
2023-03-08T04:47:45.596Z,8.13
2023-03-08T04:52:48.454Z,6.90
2023-03-08T04:57:54.998Z,10.40
2023-03-08T05:03:00.103Z,10.57
2023-03-08T05:08:05.395Z,8.87
2023-03-08T05:13:09.586Z,10.73
2023-03-08T05:18:14.582Z,7.73
2023-03-08T05:23:16.545Z,11.03
2023-03-08T05:28:20.097Z,10.67
2023-03-08T05:33:24.186Z,8.00
2023-03-08T05:38:32.419Z,10.97
2023-03-08T05:43:35.239Z,10.47
2023-03-08T05:48:39.762Z,11.20
2023-03-08T05:53:42.457Z,10.03
2023-03-08T05:58:48.579Z,12.17
2023-03-08T06:03:55.508Z,11.90
2023-03-08T06:08:58.887Z,14.17
2023-03-08T06:14:01.457Z,11.50
2023-03-08T06:19:08.061Z,7.80
2023-03-08T06:24:11.772Z,9.20
2023-03-08T06:29:16.191Z,11.23
2023-03-08T06:34:20.385Z,11.97
2023-03-08T06:39:30.907Z,14.17
2023-03-08T06:44:34.827Z,14.65
2023-03-08T06:49:38.878Z,10.07
2023-03-08T06:54:43.486Z,9.17
2023-03-08T06:59:45.253Z,9.13
2023-03-08T07:04:49.285Z,13.93
2023-03-08T07:09:51.328Z,8.83
2023-03-08T07:14:55.171Z,10.43
2023-03-08T07:19:56.999Z,7.80
2023-03-08T07:25:01.214Z,10.07
2023-03-08T07:30:06.124Z,12.93
2023-03-08T07:35:11.663Z,14.90
2023-03-08T07:40:16.258Z,10.97
2023-03-08T07:45:20.401Z,11.57
2023-03-08T07:50:22.368Z,6.10
2023-03-08T07:55:27.614Z,10.73
2023-03-08T08:00:29.450Z,8.03
2023-03-08T08:05:34.700Z,6.57
2023-03-08T08:10:36.493Z,12.10
2023-03-08T08:15:40.749Z,6.77
2023-03-08T08:20:45.036Z,8.13
2023-03-08T08:25:47.760Z,10.10
2023-03-08T08:31:02.196Z,10.30
2023-03-08T08:36:09.513Z,10.57
2023-03-08T08:41:11.332Z,9.27
2023-03-08T08:46:13.694Z,6.90
2023-03-08T08:51:15.511Z,8.30
2023-03-08T08:56:26.729Z,8.67
2023-03-08T09:01:32.152Z,10.87
2023-03-08T09:06:33.810Z,12.23
2023-03-08T09:11:48.475Z,8.23
2023-03-08T09:16:55.328Z,12.30
2023-03-08T09:21:57.021Z,9.00
2023-03-08T09:27:01.021Z,11.77
2023-03-08T09:32:06.094Z,10.57
2023-03-08T09:37:08.362Z,10.37
2023-03-08T09:42:32.657Z,7.97
2023-03-08T09:47:49.242Z,8.47
2023-03-08T09:53:09.629Z,10.80
2023-03-08T09:58:25.751Z,9.57
2023-03-08T10:03:46.485Z,12.10
2023-03-08T10:09:02.191Z,10.07
2023-03-08T10:14:17.733Z,7.93
2023-03-08T10:19:29.048Z,8.07
2023-03-08T10:24:45.253Z,7.03
2023-03-08T10:29:55.440Z,6.67
2023-03-08T10:35:04.828Z,9.07
2023-03-08T10:40:11.033Z,10.00
2023-03-08T10:45:22.258Z,9.03
2023-03-08T10:50:38.189Z,10.87
2023-03-08T10:55:47.822Z,7.13
2023-03-08T11:00:53.298Z,8.93
2023-03-08T11:06:13.506Z,5.43
2023-03-08T11:11:18.066Z,4.20
2023-03-08T11:16:47.846Z,6.23
2023-03-08T11:22:03.817Z,6.83
2023-03-08T11:27:30.303Z,10.37
2023-03-08T11:32:57.898Z,9.33
2023-03-08T11:38:28.974Z,7.63
2023-03-08T11:44:02.005Z,8.10
2023-03-08T11:49:14.944Z,8.63
2023-03-08T11:54:49.410Z,8.23
2023-03-08T12:00:00.970Z,6.33
2023-03-08T12:05:20.189Z,7.20
2023-03-08T12:10:24.790Z,9.37
2023-03-08T12:15:29.985Z,9.70
2023-03-08T12:20:41.523Z,9.73
2023-03-08T12:25:47.616Z,8.00
2023-03-08T12:31:01.309Z,7.80
2023-03-08T12:36:07.307Z,6.43
2023-03-08T12:41:24.011Z,9.27
2023-03-08T12:46:25.858Z,8.23
2023-03-08T12:51:32.843Z,7.60
2023-03-08T12:56:37.224Z,6.13
2023-03-08T13:01:45.346Z,7.37
2023-03-08T13:07:05.858Z,4.67
2023-03-08T13:12:40.795Z,5.23
2023-03-08T13:18:00.528Z,4.97
2023-03-08T13:23:04.846Z,3.37
2023-03-08T13:28:46.637Z,7.07
2023-03-08T13:33:51.990Z,5.77
2023-03-08T13:39:01.237Z,4.67
2023-03-08T13:44:07.578Z,5.50
2023-03-08T13:49:25.577Z,3.17
2023-03-08T13:54:35.746Z,3.33
2023-03-08T13:59:38.110Z,6.57
2023-03-08T14:04:42.977Z,4.93
2023-03-08T14:09:44.794Z,7.23
2023-03-08T14:14:52.500Z,3.50
2023-03-08T14:20:02.380Z,4.03
2023-03-08T14:25:05.209Z,4.83
2023-03-08T14:30:17.749Z,4.20
2023-03-08T14:35:25.883Z,8.80
2023-03-08T14:40:29.946Z,8.10
2023-03-08T14:45:50.533Z,5.60
2023-03-08T14:51:00.291Z,8.50
2023-03-08T14:56:10.972Z,7.33
2023-03-08T15:01:12.961Z,6.23
2023-03-08T15:06:23.094Z,7.45
2023-03-08T15:11:25.020Z,3.33
2023-03-08T15:16:29.837Z,8.33
2023-03-08T15:21:36.117Z,2.05
2023-03-08T15:26:37.770Z,1.73
2023-03-08T15:31:39.557Z,1.92
2023-03-08T15:36:45.978Z,3.53
2023-03-08T15:41:50.205Z,1.45
2023-03-08T15:46:52.990Z,1.13
2023-03-08T15:51:59.282Z,1.05
2023-03-08T15:57:00.962Z,0.65
2023-03-08T16:02:02.788Z,1.67
2023-03-08T16:07:04.541Z,0.73
2023-03-08T16:12:09.083Z,0.52
2023-03-08T16:17:16.907Z,1.33
2023-03-08T16:22:26.856Z,2.15
2023-03-08T16:27:35.446Z,1.35
2023-03-08T16:32:40.581Z,1.85
2023-03-08T16:37:44.698Z,1.40
2023-03-08T16:42:57.982Z,1.75
2023-03-08T16:48:00.461Z,0.85
2023-03-08T16:53:02.145Z,4.50
2023-03-08T16:58:06.346Z,1.13
2023-03-08T17:03:12.693Z,1.52
2023-03-08T17:08:14.425Z,4.07
2023-03-08T17:13:20.981Z,6.70
2023-03-08T17:18:26.088Z,1.33
2023-03-08T17:23:30.075Z,1.10
2023-03-08T17:28:32.444Z,1.70
2023-03-08T17:33:36.474Z,1.52
2023-03-08T17:38:42.635Z,1.67
2023-03-08T17:43:46.685Z,0.98
2023-03-08T17:48:51.571Z,2.30
2023-03-08T17:53:54.329Z,0.43
2023-03-08T17:58:57.747Z,4.20
2023-03-08T18:03:59.880Z,1.45
2023-03-08T18:09:09.617Z,0.88
2023-03-08T18:14:13.425Z,3.30
2023-03-08T18:19:15.233Z,1.55
2023-03-08T18:24:17.102Z,1.23
2023-03-08T18:29:21.822Z,5.25
2023-03-08T18:34:28.923Z,4.30
2023-03-08T18:39:30.840Z,7.72
2023-03-08T18:44:34.828Z,4.32
2023-03-08T18:49:38.867Z,2.00
2023-03-08T18:54:43.618Z,2.90
2023-03-08T18:59:45.730Z,4.32
2023-03-08T19:04:47.794Z,1.48
2023-03-08T19:09:56.971Z,5.93
2023-03-08T19:14:58.704Z,9.68
2023-03-08T19:20:00.443Z,3.17
2023-03-08T19:25:02.375Z,6.72
2023-03-08T19:30:04.437Z,4.25
2023-03-08T19:35:06.901Z,2.80
2023-03-08T19:40:09.787Z,1.98
2023-03-08T19:45:13.320Z,4.32
2023-03-08T19:50:20.109Z,4.88
2023-03-08T19:55:21.939Z,2.33
2023-03-08T20:00:28.833Z,2.05
2023-03-08T20:05:42.437Z,3.80
2023-03-08T20:10:44.146Z,4.68
2023-03-08T20:15:46.401Z,3.30
2023-03-08T20:20:48.304Z,1.65
2023-03-08T20:25:50.020Z,1.65
2023-03-08T20:30:52.489Z,3.08
2023-03-08T20:35:58.110Z,2.65
2023-03-08T20:41:00.927Z,11.43
2023-03-08T20:46:07.697Z,14.95
2023-03-08T20:51:12.707Z,13.43
2023-03-08T20:56:16.728Z,15.40
2023-03-08T21:01:30.599Z,15.73
2023-03-08T21:06:37.141Z,16.90
2023-03-08T21:11:38.961Z,17.00
2023-03-08T21:16:40.832Z,16.53
2023-03-08T21:21:45.533Z,17.13
2023-03-08T21:26:47.899Z,18.00
2023-03-08T21:31:52.685Z,18.23
2023-03-08T21:36:59.320Z,15.43
2023-03-08T21:42:01.022Z,15.23
2023-03-08T21:47:02.734Z,15.30
2023-03-08T21:52:09.555Z,16.33
2023-03-08T21:57:11.418Z,17.03
2023-03-08T22:02:13.156Z,18.70
2023-03-08T22:07:14.878Z,18.13
2023-03-08T22:12:16.646Z,16.43
2023-03-08T22:17:18.316Z,16.37
2023-03-08T22:22:22.583Z,16.73
2023-03-08T22:27:28.207Z,17.60
2023-03-08T22:32:32.164Z,18.83
2023-03-08T22:37:37.192Z,17.83
2023-03-08T22:42:41.944Z,20.63
2023-03-08T22:47:43.900Z,17.50
2023-03-08T22:52:48.566Z,24.53
2023-03-08T22:57:52.467Z,19.87
2023-03-08T23:02:57.738Z,25.87
2023-03-08T23:07:59.442Z,21.93
2023-03-08T23:13:03.746Z,20.63
2023-03-08T23:18:05.530Z,22.30
2023-03-08T23:23:11.921Z,21.50
2023-03-08T23:28:18.848Z,22.67
2023-03-08T23:33:20.766Z,22.47
2023-03-08T23:38:24.695Z,22.13
2023-03-08T23:43:26.390Z,19.93
2023-03-08T23:48:30.610Z,18.93
2023-03-08T23:53:32.356Z,24.27
2023-03-08T23:58:34.116Z,20.67
